createdAt,value
2017-04-19T00:00:56.370Z,45.53
2017-04-19T00:01:56.398Z,45.82
2017-04-19T00:02:56.429Z,45.82
2017-04-19T00:03:57.066Z,45.53
2017-04-19T00:04:56.481Z,45.53
2017-04-19T00:05:56.507Z,45.34
2017-04-19T00:06:56.531Z,45.92
2017-04-19T00:07:56.560Z,45.82
2017-04-19T00:08:56.693Z,45.43
2017-04-19T00:09:56.614Z,45.53
2017-04-19T00:10:56.334Z,45.51
2017-04-19T00:11:56.667Z,45.43
2017-04-19T00:12:56.693Z,45.82
2017-04-19T00:13:56.718Z,45.99
2017-04-19T00:14:56.749Z,45.53
2017-04-19T00:15:56.462Z,45.51
2017-04-19T00:16:56.799Z,45.53
2017-04-19T00:17:56.828Z,45.99
2017-04-19T00:18:56.545Z,45.6
2017-04-19T00:19:56.564Z,45.51
2017-04-19T00:20:56.596Z,45.51
2017-04-19T00:21:56.931Z,45.51
2017-04-19T00:22:56.651Z,45.89
2017-04-19T00:23:56.993Z,45.79
2017-04-19T00:24:57.014Z,45.6
2017-04-19T00:25:56.734Z,45.89
2017-04-19T00:26:57.066Z,45.79
2017-04-19T00:27:56.788Z,45.79
2017-04-19T00:28:57.116Z,45.7
2017-04-19T00:29:57.146Z,45.79
2017-04-19T00:30:56.855Z,45.99
2017-04-19T00:31:57.207Z,45.89
2017-04-19T00:32:57.239Z,45.99
2017-04-19T00:33:57.261Z,45.99
2017-04-19T00:34:57.286Z,45.6
2017-04-19T00:35:57.593Z,45.31
2017-04-19T00:36:57.339Z,45.12
2017-04-19T00:37:57.368Z,45.41
2017-04-19T00:38:57.389Z,45.41
2017-04-19T00:39:57.111Z,45.41
2017-04-19T00:40:57.438Z,45.31
2017-04-19T00:41:57.475Z,45.31
2017-04-19T00:42:57.187Z,45.21
2017-04-19T00:43:57.527Z,45.21
2017-04-19T00:44:57.245Z,45.51
2017-04-19T00:45:57.576Z,45.31
2017-04-19T00:46:57.606Z,45.21
2017-04-19T00:47:57.323Z,45.21
2017-04-19T00:48:57.344Z,45.21
2017-04-19T00:49:57.690Z,45.12
2017-04-19T00:50:57.402Z,45.51
2017-04-19T00:51:57.739Z,45.51
2017-04-19T00:52:57.456Z,45.6
2017-04-19T00:53:57.797Z,45.6
2017-04-19T00:54:57.818Z,45.12
2017-04-19T00:55:57.846Z,45.21
2017-04-19T00:56:57.874Z,45.41
2017-04-19T00:57:57.903Z,45.41
2017-04-19T00:58:57.932Z,45.21
2017-04-19T00:59:57.640Z,45.31
2017-04-19T01:00:57.976Z,44.93
2017-04-19T01:01:58.254Z,45.21
2017-04-19T01:02:58.039Z,44.83
2017-04-19T01:03:58.061Z,45.03
2017-04-19T01:04:58.088Z,45.03
2017-04-19T01:05:58.113Z,44.93
2017-04-19T01:06:58.394Z,44.35
2017-04-19T01:07:57.854Z,44.73
2017-04-19T01:08:58.196Z,44.45
2017-04-19T01:09:58.221Z,44.71
2017-04-19T01:10:58.249Z,44.64
2017-04-19T01:11:58.211Z,44.54
2017-04-19T01:12:57.995Z,44.54
2017-04-19T01:13:58.323Z,44.73
2017-04-19T01:14:58.354Z,44.81
2017-04-19T01:15:58.064Z,44.62
2017-04-19T01:16:58.657Z,44.62
2017-04-19T01:17:58.435Z,44.71
2017-04-19T01:18:58.146Z,44.81
2017-04-19T01:19:58.487Z,45
2017-04-19T01:20:58.196Z,44.81
2017-04-19T01:21:58.792Z,44.83
2017-04-19T01:22:58.566Z,44.81
2017-04-19T01:23:58.666Z,44.71
2017-04-19T01:24:58.618Z,44.23
2017-04-19T01:25:58.647Z,44.13
2017-04-19T01:26:58.924Z,44.13
2017-04-19T01:27:58.689Z,44.23
2017-04-19T01:28:58.725Z,44.04
2017-04-19T01:29:58.747Z,44.13
2017-04-19T01:30:58.779Z,44.13
2017-04-19T01:31:59.048Z,44.13
2017-04-19T01:32:58.833Z,44.13
2017-04-19T01:33:58.854Z,44.32
2017-04-19T01:34:58.876Z,44.32
2017-04-19T01:35:58.915Z,44.32
2017-04-19T01:36:59.191Z,44.13
2017-04-19T01:37:58.953Z,44.13
2017-04-19T01:38:58.990Z,44.13
2017-04-19T01:39:59.024Z,44.52
2017-04-19T01:40:58.732Z,44.52
2017-04-19T01:41:59.319Z,44.42
2017-04-19T01:42:58.784Z,44.23
2017-04-19T01:43:59.125Z,44.42
2017-04-19T01:44:59.147Z,44.52
2017-04-19T01:45:58.863Z,44.62
2017-04-19T01:46:59.455Z,44.23
2017-04-19T01:47:59.231Z,43.75
2017-04-19T01:48:59.250Z,43.75
2017-04-19T01:49:58.970Z,43.94
2017-04-19T01:50:59.309Z,43.94
2017-04-19T01:51:59.027Z,43.94
2017-04-19T01:52:59.361Z,44.13
2017-04-19T01:53:59.072Z,43.65
2017-04-19T01:54:59.410Z,43.85
2017-04-19T01:55:59.468Z,43.85
2017-04-19T01:56:59.468Z,43.65
2017-04-19T01:57:59.492Z,43.85
2017-04-19T01:58:59.525Z,44.13
2017-04-19T01:59:59.550Z,43.75
2017-04-19T02:00:59.571Z,43.85
2017-04-19T02:01:59.290Z,44.04
2017-04-19T02:02:59.623Z,44.04
2017-04-19T02:03:59.342Z,43.85
2017-04-19T02:04:59.678Z,43.55
2017-04-19T02:05:59.707Z,43.55
2017-04-19T02:06:59.735Z,43.55
2017-04-19T02:07:59.754Z,43.75
2017-04-19T02:08:59.789Z,43.75
2017-04-19T02:09:59.812Z,43.55
2017-04-19T02:10:59.838Z,43.75
2017-04-19T02:11:59.874Z,43.55
2017-04-19T02:12:59.891Z,43.65
2017-04-19T02:13:59.912Z,43.46
2017-04-19T02:14:59.941Z,43.46
2017-04-19T02:15:59.965Z,43.07
2017-04-19T02:17:00.003Z,43.37
2017-04-19T02:18:00.023Z,43.37
2017-04-19T02:19:00.055Z,43.46
2017-04-19T02:20:00.076Z,43.17
2017-04-19T02:21:00.093Z,43.37
2017-04-19T02:21:59.817Z,43.27
2017-04-19T02:23:00.155Z,43.27
2017-04-19T02:24:00.182Z,43.17
2017-04-19T02:24:59.893Z,43.07
2017-04-19T02:26:00.229Z,42.86
2017-04-19T02:27:00.262Z,42.88
2017-04-19T02:28:00.286Z,42.96
2017-04-19T02:29:00.315Z,42.97
2017-04-19T02:30:00.340Z,42.59
2017-04-19T02:31:00.053Z,42.57
2017-04-19T02:32:00.394Z,42.79
2017-04-19T02:33:00.418Z,42.67
2017-04-19T02:34:00.442Z,42.69
2017-04-19T02:35:00.466Z,43.05
2017-04-19T02:36:00.496Z,42.96
2017-04-19T02:37:00.534Z,42.76
2017-04-19T02:38:00.548Z,42.86
2017-04-19T02:39:00.419Z,43.17
2017-04-19T02:40:00.603Z,42.97
2017-04-19T02:41:00.627Z,42.88
2017-04-19T02:42:00.654Z,43.15
2017-04-19T02:43:00.623Z,42.76
2017-04-19T02:44:00.706Z,43.05
2017-04-19T02:45:00.741Z,43.15
2017-04-19T02:46:00.759Z,43.15
2017-04-19T02:47:00.789Z,43.34
2017-04-19T02:48:01.065Z,43.37
2017-04-19T02:49:00.838Z,43.34
2017-04-19T02:50:00.867Z,43.27
2017-04-19T02:51:00.892Z,43.24
2017-04-19T02:52:00.601Z,42.47
2017-04-19T02:53:01.193Z,42.57
2017-04-19T02:54:00.981Z,42.67
2017-04-19T02:55:00.687Z,42.67
2017-04-19T02:56:01.033Z,42.57
2017-04-19T02:57:01.057Z,42.86
2017-04-19T02:58:01.357Z,42.67
2017-04-19T02:59:01.102Z,42.47
2017-04-19T03:00:01.145Z,42.57
2017-04-19T03:01:00.847Z,42.57
2017-04-19T03:02:01.178Z,42.57
2017-04-19T03:03:01.461Z,42.38
2017-04-19T03:04:00.918Z,42.38
2017-04-19T03:05:01.279Z,42.28
2017-04-19T03:06:00.988Z,42.47
2017-04-19T03:07:01.308Z,42.38
2017-04-19T03:08:01.340Z,42.28
2017-04-19T03:09:01.356Z,42.38
2017-04-19T03:10:01.390Z,42.28
2017-04-19T03:11:01.106Z,42.38
2017-04-19T03:12:01.443Z,42.47
2017-04-19T03:13:01.468Z,42.19
2017-04-19T03:14:01.494Z,42.19
2017-04-19T03:15:01.524Z,42.47
2017-04-19T03:16:01.234Z,41.99
2017-04-19T03:17:01.587Z,42.28
2017-04-19T03:18:01.600Z,42.28
2017-04-19T03:19:01.625Z,42.09
2017-04-19T03:20:01.343Z,42.38
2017-04-19T03:21:01.683Z,42.47
2017-04-19T03:22:01.704Z,42.28
2017-04-19T03:23:01.419Z,42.28
2017-04-19T03:24:01.757Z,42.09
2017-04-19T03:25:01.918Z,42.38
2017-04-19T03:26:01.819Z,42.47
2017-04-19T03:27:01.844Z,42.19
2017-04-19T03:28:01.552Z,42.38
2017-04-19T03:29:01.581Z,42.19
2017-04-19T03:30:01.919Z,42.28
2017-04-19T03:31:01.622Z,42.28
2017-04-19T03:32:01.650Z,42.19
2017-04-19T03:33:01.996Z,41.99
2017-04-19T03:34:02.049Z,41.99
2017-04-19T03:35:02.050Z,42.28
2017-04-19T03:36:02.074Z,42.57
2017-04-19T03:37:02.099Z,42.09
2017-04-19T03:38:02.123Z,41.8
2017-04-19T03:39:02.156Z,41.8
2017-04-19T03:40:02.175Z,42.47
2017-04-19T03:41:02.201Z,41.99
2017-04-19T03:42:01.919Z,41.8
2017-04-19T03:43:02.256Z,41.8
2017-04-19T03:44:02.284Z,41.99
2017-04-19T03:45:02.305Z,41.99
2017-04-19T03:46:02.333Z,41.8
2017-04-19T03:47:02.362Z,41.99
2017-04-19T03:48:02.387Z,42.09
2017-04-19T03:49:02.415Z,41.89
2017-04-19T03:50:02.128Z,42.09
2017-04-19T03:51:02.466Z,42.19
2017-04-19T03:52:02.490Z,41.99
2017-04-19T03:53:02.207Z,41.89
2017-04-19T03:54:02.544Z,41.89
2017-04-19T03:55:02.572Z,42.19
2017-04-19T03:56:02.280Z,41.99
2017-04-19T03:57:02.306Z,42.09
2017-04-19T03:58:02.334Z,42.09
2017-04-19T03:59:02.671Z,42.09
2017-04-19T04:00:02.700Z,41.99
2017-04-19T04:01:02.413Z,41.61
2017-04-19T04:02:02.753Z,41.71
2017-04-19T04:03:02.775Z,41.8
2017-04-19T04:04:02.807Z,41.61
2017-04-19T04:05:02.832Z,41.99
2017-04-19T04:06:02.856Z,41.41
2017-04-19T04:07:02.884Z,41.41
2017-04-19T04:08:02.911Z,41.41
2017-04-19T04:09:02.934Z,41.32
2017-04-19T04:10:03.016Z,41.22
2017-04-19T04:11:02.988Z,41.41
2017-04-19T04:12:02.697Z,41.49
2017-04-19T04:13:02.726Z,41.49
2017-04-19T04:14:03.062Z,41.32
2017-04-19T04:15:03.086Z,41.3
2017-04-19T04:16:03.120Z,41.78
2017-04-19T04:17:03.145Z,41.32
2017-04-19T04:18:03.169Z,41.68
2017-04-19T04:19:03.212Z,41.61
2017-04-19T04:20:03.219Z,41.61
2017-04-19T04:21:03.253Z,41.13
2017-04-19T04:22:03.278Z,41.3
2017-04-19T04:23:03.303Z,41.41
2017-04-19T04:24:03.007Z,41.32
2017-04-19T04:25:03.358Z,41.32
2017-04-19T04:26:03.384Z,41.41
2017-04-19T04:27:03.406Z,41.41
2017-04-19T04:28:03.441Z,41.13
2017-04-19T04:29:03.470Z,41.22
2017-04-19T04:30:03.191Z,41.59
2017-04-19T04:31:03.511Z,41.61
2017-04-19T04:32:03.544Z,41.51
2017-04-19T04:33:03.245Z,41.61
2017-04-19T04:34:03.275Z,41.71
2017-04-19T04:35:03.610Z,41.51
2017-04-19T04:36:03.328Z,41.03
2017-04-19T04:37:03.707Z,41.51
2017-04-19T04:38:03.693Z,41.03
2017-04-19T04:39:03.714Z,41.32
2017-04-19T04:40:03.745Z,41.32
2017-04-19T04:41:03.453Z,41.51
2017-04-19T04:42:03.795Z,41.22
2017-04-19T04:43:03.840Z,41.22
2017-04-19T04:44:03.849Z,41.32
2017-04-19T04:45:03.561Z,41.51
2017-04-19T04:46:03.586Z,41.22
2017-04-19T04:47:03.926Z,41.51
2017-04-19T04:48:03.636Z,40.74
2017-04-19T04:49:03.918Z,40.95
2017-04-19T04:50:04.001Z,40.55
2017-04-19T04:51:04.027Z,40.95
2017-04-19T04:52:04.067Z,41.05
2017-04-19T04:53:04.094Z,40.57
2017-04-19T04:54:04.370Z,41.05
2017-04-19T04:55:04.134Z,40.28
2017-04-19T04:56:04.162Z,40.57
2017-04-19T04:57:04.184Z,40.57
2017-04-19T04:58:03.903Z,40.86
2017-04-19T04:59:04.492Z,40.86
2017-04-19T05:00:04.265Z,40.57
2017-04-19T05:01:04.295Z,40.37
2017-04-19T05:02:04.315Z,40.19
2017-04-19T05:03:04.343Z,40.28
2017-04-19T05:04:04.622Z,39.99
2017-04-19T05:05:04.413Z,39.79
2017-04-19T05:06:04.425Z,40.19
2017-04-19T05:07:04.450Z,40.19
2017-04-19T05:08:04.168Z,39.79
2017-04-19T05:09:04.443Z,39.61
2017-04-19T05:10:04.529Z,40.01
2017-04-19T05:11:04.561Z,39.99
2017-04-19T05:12:04.582Z,39.99
2017-04-19T05:13:04.609Z,40.11
2017-04-19T05:14:04.879Z,39.91
2017-04-19T05:15:04.659Z,39.82
2017-04-19T05:16:04.685Z,40.11
2017-04-19T05:17:04.710Z,39.82
2017-04-19T05:18:04.735Z,39.62
2017-04-19T05:19:05.015Z,39.62
2017-04-19T05:20:04.482Z,39.24
2017-04-19T05:21:04.816Z,39.53
2017-04-19T05:22:04.534Z,39.53
2017-04-19T05:23:04.558Z,39.62
2017-04-19T05:24:04.838Z,39.34
2017-04-19T05:25:04.924Z,39.34
2017-04-19T05:26:04.971Z,39.43
2017-04-19T05:27:04.975Z,39.53
2017-04-19T05:28:04.691Z,39.34
2017-04-19T05:29:05.278Z,38.85
2017-04-19T05:30:04.749Z,38.95
2017-04-19T05:31:05.081Z,39.14
2017-04-19T05:32:05.110Z,39.14
2017-04-19T05:33:05.129Z,38.76
2017-04-19T05:34:05.411Z,38.85
2017-04-19T05:35:05.188Z,38.95
2017-04-19T05:36:04.902Z,38.56
2017-04-19T05:37:04.927Z,38.95
2017-04-19T05:38:05.262Z,39.34
2017-04-19T05:39:05.546Z,39.34
2017-04-19T05:40:05.312Z,38.76
2017-04-19T05:41:05.344Z,38.76
2017-04-19T05:42:05.365Z,38.95
2017-04-19T05:43:05.402Z,38.87
2017-04-19T05:44:05.426Z,38.76
2017-04-19T05:45:05.136Z,38.76
2017-04-19T05:46:05.481Z,38.68
2017-04-19T05:47:05.505Z,38.78
2017-04-19T05:48:05.534Z,38.97
2017-04-19T05:49:05.558Z,38.78
2017-04-19T05:50:05.595Z,38.37
2017-04-19T05:51:05.609Z,38.97
2017-04-19T05:52:05.320Z,38.68
2017-04-19T05:53:05.667Z,38.39
2017-04-19T05:54:05.689Z,38.58
2017-04-19T05:55:05.720Z,38.49
2017-04-19T05:56:05.744Z,38.68
2017-04-19T05:57:05.773Z,38.97
2017-04-19T05:58:05.794Z,38.68
2017-04-19T05:59:05.510Z,38.68
2017-04-19T06:00:05.851Z,38.78
2017-04-19T06:01:05.881Z,38.78
2017-04-19T06:02:05.904Z,38.68
2017-04-19T06:03:05.933Z,38.97
2017-04-19T06:04:05.959Z,38.68
2017-04-19T06:05:05.982Z,38.68
2017-04-19T06:06:06.002Z,38.68
2017-04-19T06:07:06.032Z,38.97
2017-04-19T06:08:06.066Z,38.78
2017-04-19T06:09:06.094Z,38.97
2017-04-19T06:10:06.114Z,38.78
2017-04-19T06:11:06.142Z,38.68
2017-04-19T06:12:06.163Z,38.58
2017-04-19T06:13:05.886Z,38.87
2017-04-19T06:14:06.221Z,38.78
2017-04-19T06:15:06.246Z,38.29
2017-04-19T06:16:06.267Z,38.49
2017-04-19T06:17:06.303Z,38.49
2017-04-19T06:18:06.325Z,38.2
2017-04-19T06:19:06.046Z,38.49
2017-04-19T06:20:06.382Z,38.49
2017-04-19T06:21:06.093Z,38.39
2017-04-19T06:22:06.431Z,38.29
2017-04-19T06:23:06.152Z,38.01
2017-04-19T06:24:06.485Z,38.39
2017-04-19T06:25:06.514Z,38.41
2017-04-19T06:26:06.542Z,38.02
2017-04-19T06:27:06.565Z,38.1
2017-04-19T06:28:06.597Z,37.93
2017-04-19T06:29:06.622Z,37.73
2017-04-19T06:30:06.649Z,37.93
2017-04-19T06:31:06.676Z,38.12
2017-04-19T06:32:06.387Z,38.02
2017-04-19T06:33:06.730Z,37.73
2017-04-19T06:34:06.440Z,38.12
2017-04-19T06:35:06.469Z,37.73
2017-04-19T06:36:06.811Z,37.63
2017-04-19T06:37:06.839Z,37.93
2017-04-19T06:38:06.863Z,37.93
2017-04-19T06:39:06.889Z,37.83
2017-04-19T06:40:06.916Z,37.63
2017-04-19T06:41:06.630Z,37.93
2017-04-19T06:42:06.653Z,38.02
2017-04-19T06:43:06.992Z,38.02
2017-04-19T06:44:07.025Z,37.93
2017-04-19T06:45:07.086Z,38.02
2017-04-19T06:46:06.766Z,38.02
2017-04-19T06:47:07.103Z,37.54
2017-04-19T06:48:07.128Z,37.73
2017-04-19T06:49:06.840Z,37.73
2017-04-19T06:50:07.185Z,37.83
2017-04-19T06:51:07.210Z,37.73
2017-04-19T06:52:07.239Z,37.63
2017-04-19T06:53:06.950Z,37.63
2017-04-19T06:54:07.324Z,37.83
2017-04-19T06:55:07.321Z,37.63
2017-04-19T06:56:07.347Z,37.73
2017-04-19T06:57:07.370Z,37.45
2017-04-19T06:58:07.083Z,37.54
2017-04-19T06:59:07.424Z,37.35
2017-04-19T07:00:07.453Z,37.25
2017-04-19T07:01:07.482Z,37.15
2017-04-19T07:02:07.502Z,37.35
2017-04-19T07:03:07.536Z,37.45
2017-04-19T07:04:07.559Z,37.45
2017-04-19T07:05:07.274Z,37.45
2017-04-19T07:06:07.299Z,37.45
2017-04-19T07:07:07.641Z,37.35
2017-04-19T07:08:07.663Z,37.06
2017-04-19T07:09:07.696Z,37.35
2017-04-19T07:10:07.720Z,37.35
2017-04-19T07:11:07.750Z,37.33
2017-04-19T07:12:07.460Z,37.43
2017-04-19T07:13:07.811Z,37.45
2017-04-19T07:14:07.819Z,37.54
2017-04-19T07:15:07.856Z,37.33
2017-04-19T07:16:07.885Z,37.54
2017-04-19T07:17:07.601Z,37.54
2017-04-19T07:18:07.936Z,37.45
2017-04-19T07:19:07.647Z,37.13
2017-04-19T07:20:07.993Z,36.94
2017-04-19T07:21:07.706Z,37.13
2017-04-19T07:22:08.048Z,37.13
2017-04-19T07:23:08.074Z,36.94
2017-04-19T07:24:07.779Z,37.23
2017-04-19T07:25:08.125Z,37.33
2017-04-19T07:26:08.161Z,37.23
2017-04-19T07:27:07.866Z,37.43
2017-04-19T07:28:08.204Z,36.94
2017-04-19T07:29:08.225Z,36.94
2017-04-19T07:30:08.260Z,36.75
2017-04-19T07:31:08.289Z,37.04
2017-04-19T07:32:08.001Z,37.23
2017-04-19T07:33:08.335Z,36.85
2017-04-19T07:34:08.057Z,36.75
2017-04-19T07:35:08.647Z,37.23
2017-04-19T07:36:08.110Z,37.04
2017-04-19T07:37:08.442Z,37.04
2017-04-19T07:38:08.469Z,36.75
2017-04-19T07:39:08.503Z,36.65
2017-04-19T07:40:08.467Z,36.75
2017-04-19T07:41:08.556Z,36.75
2017-04-19T07:42:08.585Z,36.75
2017-04-19T07:43:08.609Z,36.85
2017-04-19T07:44:08.319Z,36.65
2017-04-19T07:45:08.916Z,36.55
2017-04-19T07:46:08.689Z,36.65
2017-04-19T07:47:08.715Z,36.65
2017-04-19T07:48:08.429Z,36.65
2017-04-19T07:49:08.765Z,36.65
2017-04-19T07:50:09.103Z,36.55
2017-04-19T07:51:08.827Z,36.55
2017-04-19T07:52:08.853Z,36.65
2017-04-19T07:53:08.878Z,36.17
2017-04-19T07:54:08.903Z,36.55
2017-04-19T07:55:09.194Z,36.36
2017-04-19T07:56:08.949Z,36.55
2017-04-19T07:57:08.984Z,36.27
2017-04-19T07:58:09.012Z,36.36
2017-04-19T07:59:09.037Z,35.98
2017-04-19T08:00:09.320Z,36.07
2017-04-19T08:01:09.092Z,36.46
2017-04-19T08:02:09.119Z,36.07
2017-04-19T08:03:09.145Z,36.36
2017-04-19T08:04:09.172Z,36.36
2017-04-19T08:05:09.449Z,36.17
2017-04-19T08:06:09.217Z,36.07
2017-04-19T08:07:08.943Z,36.27
2017-04-19T08:08:08.969Z,35.98
2017-04-19T08:09:09.307Z,35.78
2017-04-19T08:10:09.272Z,35.69
2017-04-19T08:11:09.351Z,35.88
2017-04-19T08:12:09.388Z,35.88
2017-04-19T08:13:09.412Z,35.78
2017-04-19T08:14:09.445Z,35.59
2017-04-19T08:15:09.768Z,35.88
2017-04-19T08:16:09.490Z,35.78
2017-04-19T08:17:09.522Z,35.78
2017-04-19T08:18:09.551Z,35.59
2017-04-19T08:19:09.577Z,35.5
2017-04-19T08:20:09.286Z,35.69
2017-04-19T08:21:09.630Z,35.88
2017-04-19T08:22:09.349Z,35.5
2017-04-19T08:23:09.404Z,35.5
2017-04-19T08:24:09.711Z,35.59
2017-04-19T08:25:09.424Z,35.78
2017-04-19T08:26:09.778Z,35.59
2017-04-19T08:27:09.794Z,35.98
2017-04-19T08:28:09.826Z,35.59
2017-04-19T08:29:09.841Z,35.88
2017-04-19T08:30:09.868Z,35.98
2017-04-19T08:31:09.898Z,36.17
2017-04-19T08:32:09.922Z,35.78
2017-04-19T08:33:09.950Z,35.88
2017-04-19T08:34:09.976Z,35.88
2017-04-19T08:35:10.000Z,35.69
2017-04-19T08:36:10.028Z,35.78
2017-04-19T08:37:10.053Z,35.98
2017-04-19T08:38:10.087Z,35.78
2017-04-19T08:39:10.116Z,36.17
2017-04-19T08:40:10.140Z,35.11
2017-04-19T08:41:10.173Z,35.3
2017-04-19T08:42:09.875Z,34.92
2017-04-19T08:43:10.218Z,35.11
2017-04-19T08:44:09.943Z,34.82
2017-04-19T08:45:10.275Z,35.02
2017-04-19T08:46:09.989Z,34.82
2017-04-19T08:47:10.330Z,35.02
2017-04-19T08:48:10.047Z,35.11
2017-04-19T08:49:10.383Z,35.5
2017-04-19T08:50:10.407Z,34.92
2017-04-19T08:51:10.434Z,34.92
2017-04-19T08:52:10.466Z,34.82
2017-04-19T08:53:10.497Z,35.02
2017-04-19T08:54:10.520Z,35.02
2017-04-19T08:55:10.548Z,35.21
2017-04-19T08:56:10.573Z,35.02
2017-04-19T08:57:10.600Z,34.82
2017-04-19T08:58:10.638Z,35.21
2017-04-19T08:59:10.655Z,34.92
2017-04-19T09:00:10.676Z,35.11
2017-04-19T09:01:10.709Z,34.92
2017-04-19T09:02:10.420Z,34.82
2017-04-19T09:03:10.758Z,34.82
2017-04-19T09:04:10.783Z,34.92
2017-04-19T09:05:10.816Z,35.02
2017-04-19T09:06:10.845Z,34.82
2017-04-19T09:07:10.552Z,35.11
2017-04-19T09:08:10.889Z,35.21
2017-04-19T09:09:10.918Z,34.92
2017-04-19T09:10:10.959Z,34.72
2017-04-19T09:11:10.915Z,34.44
2017-04-19T09:12:11.002Z,35.21
2017-04-19T09:13:11.029Z,34.72
2017-04-19T09:14:11.057Z,35.02
2017-04-19T09:15:10.775Z,34.74
2017-04-19T09:16:11.354Z,35.21
2017-04-19T09:17:11.141Z,34.34
2017-04-19T09:18:11.165Z,35.11
2017-04-19T09:19:11.193Z,34.84
2017-04-19T09:20:10.911Z,34.63
2017-04-19T09:21:11.495Z,34.44
2017-04-19T09:22:10.965Z,34.92
2017-04-19T09:23:11.301Z,34.82
2017-04-19T09:24:11.325Z,34.63
2017-04-19T09:25:11.357Z,34.82
2017-04-19T09:26:11.626Z,35.21
2017-04-19T09:27:11.408Z,35.02
2017-04-19T09:28:11.436Z,34.82
2017-04-19T09:29:11.465Z,35.11
2017-04-19T09:30:11.492Z,34.82
2017-04-19T09:31:11.767Z,35.11
2017-04-19T09:32:11.548Z,35.02
2017-04-19T09:33:11.254Z,34.72
2017-04-19T09:34:11.280Z,34.63
2017-04-19T09:35:11.314Z,34.53
2017-04-19T09:36:11.903Z,34.92
2017-04-19T09:37:11.687Z,34.72
2017-04-19T09:38:11.394Z,34.92
2017-04-19T09:39:11.732Z,34.72
2017-04-19T09:40:11.453Z,34.82
2017-04-19T09:41:12.043Z,34.92
2017-04-19T09:42:11.815Z,34.92
2017-04-19T09:43:11.844Z,34.82
2017-04-19T09:44:11.865Z,35.11
2017-04-19T09:45:11.897Z,35.21
2017-04-19T09:46:11.865Z,34.82
2017-04-19T09:47:11.954Z,34.63
2017-04-19T09:48:11.979Z,34.82
2017-04-19T09:49:12.007Z,34.63
2017-04-19T09:50:12.033Z,34.63
2017-04-19T09:51:12.313Z,34.82
2017-04-19T09:52:12.085Z,34.53
2017-04-19T09:53:11.799Z,35.21
2017-04-19T09:54:12.139Z,34.92
2017-04-19T09:55:12.162Z,34.34
2017-04-19T09:56:12.449Z,34.82
2017-04-19T09:57:12.231Z,34.34
2017-04-19T09:58:11.939Z,34.53
2017-04-19T09:59:12.276Z,34.34
2017-04-19T10:00:12.309Z,34.53
2017-04-19T10:01:12.585Z,34.34
2017-04-19T10:02:12.050Z,34.44
2017-04-19T10:03:12.383Z,34.44
2017-04-19T10:04:12.415Z,34.53
2017-04-19T10:05:12.443Z,34.44
2017-04-19T10:06:12.469Z,34.53
2017-04-19T10:07:12.497Z,34.63
2017-04-19T10:08:12.526Z,34.44
2017-04-19T10:09:12.239Z,34.24
2017-04-19T10:10:12.577Z,34.14
2017-04-19T10:11:12.293Z,34.34
2017-04-19T10:12:12.324Z,33.95
2017-04-19T10:13:12.658Z,34.14
2017-04-19T10:14:12.373Z,33.95
2017-04-19T10:15:12.716Z,34.24
2017-04-19T10:16:12.428Z,34.24
2017-04-19T10:17:12.769Z,34.24
2017-04-19T10:18:12.799Z,34.05
2017-04-19T10:19:12.831Z,34.05
2017-04-19T10:20:12.839Z,34.14
2017-04-19T10:21:12.564Z,34.05
2017-04-19T10:22:12.907Z,34.14
2017-04-19T10:23:12.930Z,34.05
2017-04-19T10:24:12.960Z,34.05
2017-04-19T10:25:12.976Z,34.34
2017-04-19T10:26:13.007Z,34.05
2017-04-19T10:27:13.037Z,34.14
2017-04-19T10:28:13.064Z,34.14
2017-04-19T10:29:13.091Z,34.24
2017-04-19T10:30:13.116Z,34.05
2017-04-19T10:31:13.148Z,34.05
2017-04-19T10:32:13.423Z,34.05
2017-04-19T10:33:13.199Z,34.05
2017-04-19T10:34:13.230Z,33.95
2017-04-19T10:35:12.939Z,34.05
2017-04-19T10:36:12.972Z,34.05
2017-04-19T10:37:13.560Z,34.14
2017-04-19T10:38:13.018Z,34.05
2017-04-19T10:39:13.365Z,34.05
2017-04-19T10:40:13.077Z,34.24
2017-04-19T10:41:13.107Z,34.24
2017-04-19T10:42:13.388Z,34.34
2017-04-19T10:43:13.161Z,34.24
2017-04-19T10:44:13.500Z,34.05
2017-04-19T10:45:13.526Z,34.14
2017-04-19T10:46:13.556Z,33.86
2017-04-19T10:47:13.830Z,34.05
2017-04-19T10:48:13.603Z,33.95
2017-04-19T10:49:13.632Z,34.05
2017-04-19T10:50:13.848Z,33.95
2017-04-19T10:51:13.691Z,34.14
2017-04-19T10:52:13.963Z,34.24
2017-04-19T10:53:13.749Z,34.14
2017-04-19T10:54:13.768Z,34.44
2017-04-19T10:55:13.801Z,34.34
2017-04-19T10:56:13.826Z,34.44
2017-04-19T10:57:14.115Z,34.34
2017-04-19T10:58:13.881Z,34.53
2017-04-19T10:59:13.909Z,34.44
2017-04-19T11:00:13.938Z,34.53
2017-04-19T11:01:13.963Z,34.44
2017-04-19T11:02:13.930Z,34.63
2017-04-19T11:03:13.716Z,34.53
2017-04-19T11:04:14.036Z,34.44
2017-04-19T11:05:14.069Z,34.53
2017-04-19T11:06:14.089Z,34.44
2017-04-19T11:07:14.374Z,34.63
2017-04-19T11:08:14.152Z,34.44
2017-04-19T11:09:14.176Z,34.14
2017-04-19T11:10:13.894Z,34.24
2017-04-19T11:11:14.233Z,34.24
2017-04-19T11:12:14.514Z,34.24
2017-04-19T11:13:14.291Z,33.95
2017-04-19T11:14:14.315Z,34.05
2017-04-19T11:15:14.340Z,34.24
2017-04-19T11:16:14.364Z,34.05
2017-04-19T11:17:14.649Z,34.14
2017-04-19T11:18:14.138Z,34.24
2017-04-19T11:19:14.449Z,34.05
2017-04-19T11:20:14.480Z,34.24
2017-04-19T11:21:14.506Z,33.95
2017-04-19T11:22:14.222Z,34.05
2017-04-19T11:23:14.250Z,34.14
2017-04-19T11:24:14.587Z,34.14
2017-04-19T11:25:14.612Z,34.14
2017-04-19T11:26:14.638Z,34.05
2017-04-19T11:27:14.669Z,34.05
2017-04-19T11:28:14.377Z,34.05
2017-04-19T11:29:14.726Z,34.14
2017-04-19T11:30:14.752Z,33.95
2017-04-19T11:31:14.460Z,33.95
2017-04-19T11:32:14.809Z,34.05
2017-04-19T11:33:14.834Z,34.44
2017-04-19T11:34:14.862Z,34.44
2017-04-19T11:35:14.886Z,34.53
2017-04-19T11:36:14.916Z,34.14
2017-04-19T11:37:14.944Z,34.53
2017-04-19T11:38:14.969Z,34.34
2017-04-19T11:39:14.998Z,34.44
2017-04-19T11:40:15.023Z,34.63
2017-04-19T11:41:15.052Z,34.53
2017-04-19T11:42:14.769Z,34.44
2017-04-19T11:43:15.109Z,34.34
2017-04-19T11:44:14.823Z,34.44
2017-04-19T11:45:14.857Z,34.44
2017-04-19T11:46:15.183Z,34.63
2017-04-19T11:47:15.216Z,34.63
2017-04-19T11:48:14.933Z,34.05
2017-04-19T11:49:15.270Z,33.95
2017-04-19T11:50:15.300Z,34.53
2017-04-19T11:51:15.340Z,34.34
2017-04-19T11:52:15.357Z,34.14
2017-04-19T11:53:15.381Z,34.14
2017-04-19T11:54:15.406Z,34.05
2017-04-19T11:55:15.435Z,34.05
2017-04-19T11:56:15.147Z,34.14
2017-04-19T11:57:15.176Z,34.05
2017-04-19T11:58:15.205Z,33.95
2017-04-19T11:59:15.542Z,33.95
2017-04-19T12:00:15.571Z,34.34
2017-04-19T12:01:15.598Z,34.53
2017-04-19T12:02:15.310Z,34.44
2017-04-19T12:03:15.649Z,34.53
2017-04-19T12:04:15.364Z,34.44
2017-04-19T12:05:15.393Z,34.34
2017-04-19T12:06:15.729Z,34.53
2017-04-19T12:07:15.758Z,35.11
2017-04-19T12:08:15.800Z,34.82
2017-04-19T12:09:15.813Z,34.92
2017-04-19T12:10:15.837Z,35.02
2017-04-19T12:11:15.863Z,34.92
2017-04-19T12:12:15.891Z,34.92
2017-04-19T12:13:15.925Z,35.11
2017-04-19T12:14:15.945Z,34.63
2017-04-19T12:15:15.662Z,35
2017-04-19T12:16:16.001Z,34.82
2017-04-19T12:17:16.022Z,34.9
2017-04-19T12:18:16.056Z,34.61
2017-04-19T12:19:15.792Z,34.7
2017-04-19T12:20:16.115Z,35.19
2017-04-19T12:21:16.137Z,35.3
2017-04-19T12:22:16.167Z,34.42
2017-04-19T12:23:16.192Z,35.11
2017-04-19T12:24:16.215Z,34.52
2017-04-19T12:25:16.261Z,35.1
2017-04-19T12:26:16.269Z,35.1
2017-04-19T12:27:16.295Z,34.8
2017-04-19T12:28:16.322Z,35.21
2017-04-19T12:29:16.352Z,34.9
2017-04-19T12:30:16.387Z,35.21
2017-04-19T12:31:16.416Z,35.21
2017-04-19T12:32:16.442Z,34.82
2017-04-19T12:33:16.141Z,35.11
2017-04-19T12:34:16.179Z,35.11
2017-04-19T12:35:16.519Z,34.34
2017-04-19T12:36:16.541Z,35.4
2017-04-19T12:37:16.571Z,34.82
2017-04-19T12:38:16.590Z,34.63
2017-04-19T12:39:16.627Z,34.53
2017-04-19T12:40:16.646Z,35.21
2017-04-19T12:41:16.681Z,35.19
2017-04-19T12:42:16.397Z,35.02
2017-04-19T12:43:16.735Z,34.72
2017-04-19T12:44:16.755Z,35.1
2017-04-19T12:45:16.791Z,35.19
2017-04-19T12:46:16.816Z,34.82
2017-04-19T12:47:16.841Z,34.7
2017-04-19T12:48:16.867Z,35.1
2017-04-19T12:49:16.900Z,34.9
2017-04-19T12:50:16.923Z,34.8
2017-04-19T12:51:16.952Z,34.34
2017-04-19T12:52:16.977Z,35.19
2017-04-19T12:53:16.689Z,35.21
2017-04-19T12:54:17.033Z,34.61
2017-04-19T12:55:17.060Z,34.7